createdAt,value
2023-02-19T00:01:01.275Z,13.69
2023-02-19T00:03:28.260Z,13.78
2023-02-19T00:05:55.498Z,13.28
2023-02-19T00:08:22.444Z,13.71
2023-02-19T00:10:49.497Z,13.70
2023-02-19T00:13:17.918Z,13.77
2023-02-19T00:15:45.088Z,13.50
2023-02-19T00:18:12.022Z,13.77
2023-02-19T00:20:38.872Z,13.55
2023-02-19T00:23:06.032Z,13.68
2023-02-19T00:25:36.836Z,13.77
2023-02-19T00:28:04.299Z,13.62
2023-02-19T00:30:33.359Z,13.61
2023-02-19T00:33:00.382Z,13.70
2023-02-19T00:35:27.438Z,13.80
2023-02-19T00:37:54.389Z,13.67
2023-02-19T00:40:21.357Z,13.44
2023-02-19T00:42:48.306Z,13.62
2023-02-19T00:45:15.449Z,13.55
2023-02-19T00:47:58.877Z,13.58
2023-02-19T00:50:25.894Z,13.66
2023-02-19T00:52:52.946Z,13.36
2023-02-19T00:55:20.257Z,13.70
2023-02-19T00:57:47.264Z,13.54
2023-02-19T01:00:14.726Z,13.34
2023-02-19T01:02:41.779Z,13.68
2023-02-19T01:05:12.957Z,13.46
2023-02-19T01:07:40.106Z,13.53
2023-02-19T01:10:07.445Z,13.56
2023-02-19T01:12:43.192Z,13.78
2023-02-19T01:15:10.290Z,13.74
2023-02-19T01:17:41.015Z,13.77
2023-02-19T01:20:15.087Z,13.94
2023-02-19T01:22:45.215Z,13.80
2023-02-19T01:25:18.947Z,13.72
2023-02-19T01:28:06.836Z,13.86
2023-02-19T01:30:34.890Z,13.58
2023-02-19T01:33:02.260Z,13.86
2023-02-19T01:35:41.312Z,13.82
2023-02-19T01:38:19.351Z,13.81
2023-02-19T01:41:05.110Z,13.70
2023-02-19T01:43:33.806Z,13.74
2023-02-19T01:46:01.655Z,13.46
2023-02-19T01:48:33.766Z,13.55
2023-02-19T01:51:07.408Z,13.72
2023-02-19T01:53:38.275Z,13.69
2023-02-19T01:56:11.352Z,13.75
2023-02-19T01:58:41.146Z,13.75
2023-02-19T02:01:15.947Z,13.42
2023-02-19T02:03:49.636Z,13.75
2023-02-19T02:06:24.781Z,13.64
2023-02-19T02:09:13.661Z,13.68
2023-02-19T02:11:45.401Z,13.58
2023-02-19T02:14:12.988Z,13.61
2023-02-19T02:16:49.589Z,13.44
2023-02-19T02:19:31.222Z,13.49
2023-02-19T02:22:16.467Z,13.71
2023-02-19T02:25:15.755Z,13.72
2023-02-19T02:27:53.707Z,13.50
2023-02-19T02:30:42.922Z,13.50
2023-02-19T02:33:21.436Z,13.58
2023-02-19T02:35:51.546Z,13.58
2023-02-19T02:38:22.797Z,13.50
2023-02-19T02:40:50.603Z,13.49
2023-02-19T02:43:17.820Z,13.52
2023-02-19T02:45:46.273Z,13.26
2023-02-19T02:48:21.250Z,13.30
2023-02-19T02:50:52.327Z,13.34
2023-02-19T02:53:41.576Z,13.37
2023-02-19T02:56:11.236Z,13.11
2023-02-19T02:58:38.985Z,13.57
2023-02-19T03:01:28.804Z,13.72
2023-02-19T03:04:03.121Z,13.45
2023-02-19T03:06:33.691Z,13.29
2023-02-19T03:09:07.362Z,13.39
2023-02-19T03:11:56.360Z,13.31
2023-02-19T03:14:48.524Z,13.42
2023-02-19T03:17:41.020Z,13.63
2023-02-19T03:20:12.629Z,13.55
2023-02-19T03:22:41.909Z,13.55
2023-02-19T03:25:31.283Z,13.47
2023-02-19T03:28:00.917Z,13.48
2023-02-19T03:30:31.806Z,13.55
2023-02-19T03:33:08.256Z,13.26
2023-02-19T03:35:40.131Z,13.45
2023-02-19T03:38:11.253Z,13.63
2023-02-19T03:40:50.363Z,13.51
2023-02-19T03:43:21.132Z,13.33
2023-02-19T03:45:58.692Z,13.27
2023-02-19T03:48:33.386Z,13.45
2023-02-19T03:51:27.158Z,13.33
2023-02-19T03:54:02.759Z,13.32
2023-02-19T03:56:35.259Z,13.37
2023-02-19T03:59:09.989Z,13.36
2023-02-19T04:01:42.346Z,13.35
2023-02-19T04:04:17.712Z,13.44
2023-02-19T04:06:52.700Z,13.29
2023-02-19T04:09:22.148Z,13.12
2023-02-19T04:11:51.837Z,13.25
2023-02-19T04:14:23.549Z,13.14
2023-02-19T04:16:55.933Z,13.19
2023-02-19T04:19:27.706Z,13.06
2023-02-19T04:21:56.648Z,13.00
2023-02-19T04:24:27.698Z,13.32
2023-02-19T04:26:56.079Z,13.38
2023-02-19T04:29:23.286Z,13.42
2023-02-19T04:31:50.512Z,12.98
2023-02-19T04:34:17.580Z,13.12
2023-02-19T04:36:45.957Z,13.27
2023-02-19T04:39:13.278Z,12.84
2023-02-19T04:41:40.394Z,13.12
2023-02-19T04:44:07.497Z,13.19
2023-02-19T04:46:34.543Z,13.27
2023-02-19T04:49:01.592Z,13.30
2023-02-19T04:51:28.570Z,13.45
2023-02-19T04:53:56.935Z,13.47
2023-02-19T04:56:24.132Z,13.19
2023-02-19T04:58:51.187Z,13.26
2023-02-19T05:01:18.212Z,12.97
2023-02-19T05:03:45.647Z,13.01
2023-02-19T05:06:13.936Z,13.11
2023-02-19T05:08:41.471Z,12.94
2023-02-19T05:11:12.400Z,13.15
2023-02-19T05:13:40.438Z,12.90
2023-02-19T05:16:10.142Z,13.08
2023-02-19T05:18:37.074Z,12.91
2023-02-19T05:21:04.503Z,13.11
2023-02-19T05:23:31.558Z,13.12
2023-02-19T05:25:58.565Z,12.93
2023-02-19T05:28:29.142Z,12.91
2023-02-19T05:30:57.949Z,13.25
2023-02-19T05:33:26.356Z,13.07
2023-02-19T05:35:55.221Z,13.38
2023-02-19T05:38:23.120Z,13.31
2023-02-19T05:40:50.816Z,12.92
2023-02-19T05:43:18.122Z,12.93
2023-02-19T05:45:46.549Z,13.12
2023-02-19T05:48:13.796Z,13.09
2023-02-19T05:50:40.784Z,13.11
2023-02-19T05:53:07.853Z,12.88
2023-02-19T05:55:35.995Z,13.03
2023-02-19T05:58:03.692Z,12.75
2023-02-19T06:00:32.121Z,13.01
2023-02-19T06:03:00.831Z,13.08
2023-02-19T06:05:27.921Z,13.01
2023-02-19T06:07:54.894Z,12.79
2023-02-19T06:10:22.770Z,13.23
2023-02-19T06:12:53.504Z,13.32
2023-02-19T06:15:21.352Z,13.13
2023-02-19T06:17:48.537Z,13.31
2023-02-19T06:20:16.961Z,13.03
2023-02-19T06:22:43.947Z,13.00
2023-02-19T06:25:12.765Z,13.17
2023-02-19T06:27:39.855Z,13.17
2023-02-19T06:30:08.057Z,12.97
2023-02-19T06:32:35.113Z,12.85
2023-02-19T06:35:02.371Z,13.13
2023-02-19T06:37:30.914Z,12.78
2023-02-19T06:39:57.992Z,12.82
2023-02-19T06:42:25.040Z,12.99
2023-02-19T06:44:52.010Z,12.90
2023-02-19T06:47:19.092Z,12.94
2023-02-19T06:49:46.066Z,13.06
2023-02-19T06:52:13.107Z,13.35
2023-02-19T06:54:41.549Z,13.36
2023-02-19T06:57:08.550Z,12.94
2023-02-19T06:59:35.494Z,13.18
2023-02-19T07:02:02.491Z,13.15
2023-02-19T07:04:29.466Z,13.07
2023-02-19T07:06:56.546Z,12.80
2023-02-19T07:09:25.524Z,12.67
2023-02-19T07:11:54.249Z,12.80
2023-02-19T07:14:21.707Z,12.91
2023-02-19T07:16:48.874Z,13.04
2023-02-19T07:19:16.603Z,12.93
2023-02-19T07:21:43.594Z,12.78
2023-02-19T07:24:10.910Z,12.82
2023-02-19T07:26:37.967Z,12.91
2023-02-19T07:29:07.609Z,13.18
2023-02-19T07:31:34.793Z,12.75
2023-02-19T07:34:01.923Z,13.01
2023-02-19T07:36:28.938Z,12.90
2023-02-19T07:38:57.056Z,12.85
2023-02-19T07:41:24.777Z,12.99
2023-02-19T07:43:52.286Z,12.78
2023-02-19T07:46:21.568Z,13.01
2023-02-19T07:48:48.699Z,13.21
2023-02-19T07:51:19.550Z,13.13
2023-02-19T07:53:47.158Z,13.25
2023-02-19T07:56:14.720Z,13.48
2023-02-19T07:58:42.643Z,13.08
2023-02-19T08:01:12.356Z,13.08
2023-02-19T08:03:42.190Z,13.42
2023-02-19T08:06:11.421Z,13.24
2023-02-19T08:08:38.878Z,13.14
2023-02-19T08:11:25.825Z,13.19
2023-02-19T08:13:53.877Z,13.37
2023-02-19T08:16:36.944Z,13.14
2023-02-19T08:19:09.418Z,13.50
2023-02-19T08:21:36.360Z,13.29
2023-02-19T08:24:03.609Z,13.39
2023-02-19T08:26:30.661Z,13.35
2023-02-19T08:28:59.096Z,13.31
2023-02-19T08:31:26.157Z,13.30
2023-02-19T08:33:53.289Z,13.16
2023-02-19T08:36:21.870Z,13.66
2023-02-19T08:38:48.897Z,13.21
2023-02-19T08:41:16.077Z,13.55
2023-02-19T08:43:43.799Z,13.52
2023-02-19T08:46:12.146Z,13.86
2023-02-19T08:48:40.151Z,13.83
2023-02-19T08:51:09.877Z,13.97
2023-02-19T08:53:40.609Z,14.11
2023-02-19T08:56:09.653Z,14.21
2023-02-19T08:58:37.612Z,13.55
2023-02-19T09:01:09.341Z,13.64
2023-02-19T09:03:36.768Z,13.57
2023-02-19T09:06:04.394Z,13.85
2023-02-19T09:08:31.581Z,14.09
2023-02-19T09:11:01.958Z,13.92
2023-02-19T09:13:29.227Z,13.48
2023-02-19T09:15:57.325Z,13.94
2023-02-19T09:18:25.109Z,14.25
2023-02-19T09:20:52.158Z,14.02
2023-02-19T09:23:19.410Z,14.24
2023-02-19T09:25:46.493Z,13.54
2023-02-19T09:28:16.956Z,13.98
2023-02-19T09:30:44.108Z,13.81
2023-02-19T09:33:11.094Z,14.03
2023-02-19T09:35:39.585Z,14.42
2023-02-19T09:38:07.060Z,14.36
2023-02-19T09:40:36.471Z,14.30
2023-02-19T09:43:07.054Z,14.58
2023-02-19T09:45:38.260Z,14.67
2023-02-19T09:48:06.970Z,14.37
2023-02-19T09:50:36.964Z,14.27
2023-02-19T09:53:11.675Z,14.11
2023-02-19T09:55:40.884Z,14.53
2023-02-19T09:58:19.200Z,14.44
2023-02-19T10:00:49.799Z,14.37
2023-02-19T10:03:23.648Z,14.35
2023-02-19T10:05:50.467Z,14.35
2023-02-19T10:08:20.601Z,14.90
2023-02-19T10:10:48.169Z,14.66
2023-02-19T10:13:19.994Z,14.39
2023-02-19T10:15:51.735Z,14.38
2023-02-19T10:18:21.979Z,13.99
2023-02-19T10:20:50.973Z,14.18
2023-02-19T10:23:18.223Z,14.63
2023-02-19T10:25:48.174Z,14.96
2023-02-19T10:28:18.225Z,14.30
2023-02-19T10:30:49.224Z,14.35
2023-02-19T10:33:17.790Z,14.48
2023-02-19T10:35:55.157Z,14.24
2023-02-19T10:38:26.134Z,14.30
2023-02-19T10:41:00.574Z,14.85
2023-02-19T10:43:34.104Z,14.57
2023-02-19T10:46:04.968Z,14.36
2023-02-19T10:48:37.044Z,14.60
2023-02-19T10:51:08.260Z,14.16
2023-02-19T10:53:40.722Z,14.48
2023-02-19T10:56:09.647Z,14.20
2023-02-19T10:58:40.178Z,14.20
2023-02-19T11:01:13.271Z,14.38
2023-02-19T11:03:42.316Z,14.00
2023-02-19T11:06:11.833Z,13.67
2023-02-19T11:08:52.023Z,13.71
2023-02-19T11:11:28.765Z,13.99
2023-02-19T11:13:58.146Z,14.07
2023-02-19T11:16:37.338Z,13.96
2023-02-19T11:19:06.194Z,13.64
2023-02-19T11:21:33.626Z,14.31
2023-02-19T11:24:03.831Z,14.28
2023-02-19T11:26:35.379Z,14.20
2023-02-19T11:29:13.435Z,14.41
2023-02-19T11:31:40.490Z,14.41
2023-02-19T11:34:30.140Z,14.50
2023-02-19T11:37:12.355Z,14.85
2023-02-19T11:39:41.534Z,14.19
2023-02-19T11:42:30.812Z,14.72
2023-02-19T11:45:12.097Z,14.57
2023-02-19T11:47:57.646Z,14.73
2023-02-19T11:50:42.689Z,15.02
2023-02-19T11:53:21.957Z,15.07
2023-02-19T11:56:07.503Z,14.90
2023-02-19T11:58:51.819Z,15.10
2023-02-19T12:01:27.143Z,14.82
2023-02-19T12:04:20.974Z,15.01
2023-02-19T12:06:58.487Z,14.74
2023-02-19T12:09:36.824Z,14.86
2023-02-19T12:12:26.865Z,14.65
2023-02-19T12:15:20.267Z,14.71
2023-02-19T12:18:19.208Z,14.36
2023-02-19T12:20:57.956Z,14.30
2023-02-19T12:23:45.550Z,14.36
2023-02-19T12:26:22.621Z,14.31
2023-02-19T12:29:01.951Z,13.83
2023-02-19T12:32:01.058Z,13.83
2023-02-19T12:34:48.286Z,13.43
2023-02-19T12:37:30.772Z,13.83
2023-02-19T12:40:14.812Z,14.19
2023-02-19T12:42:54.955Z,14.24
2023-02-19T12:45:30.336Z,13.68
2023-02-19T12:48:04.429Z,13.67
2023-02-19T12:50:32.057Z,14.23
2023-02-19T12:53:05.766Z,13.99
2023-02-19T12:55:39.209Z,14.19
2023-02-19T12:58:11.655Z,13.90
2023-02-19T13:00:42.772Z,14.01
2023-02-19T13:03:21.087Z,14.06
2023-02-19T13:05:54.529Z,13.63
2023-02-19T13:08:27.475Z,14.08
2023-02-19T13:11:01.033Z,14.02
2023-02-19T13:13:33.578Z,13.64
2023-02-19T13:16:10.159Z,13.46
2023-02-19T13:18:49.094Z,13.66
2023-02-19T13:25:10.494Z,13.66
2023-02-19T13:28:13.203Z,13.48
2023-02-19T13:31:02.893Z,13.46
2023-02-19T13:33:53.970Z,13.64
2023-02-19T13:36:26.560Z,13.78
2023-02-19T13:39:01.015Z,14.05
2023-02-19T13:41:32.008Z,13.78
2023-02-19T13:44:08.440Z,13.38
2023-02-19T13:46:42.426Z,13.95
2023-02-19T13:49:49.293Z,14.00
2023-02-19T13:52:42.277Z,13.31
2023-02-19T13:55:54.964Z,13.46
2023-02-19T14:01:04.769Z,13.53
2023-02-19T14:03:46.857Z,13.91
2023-02-19T14:06:14.944Z,13.42
2023-02-19T14:12:07.238Z,12.65
2023-02-19T14:14:40.535Z,12.88
2023-02-19T14:17:27.975Z,12.80
2023-02-19T14:20:26.405Z,13.28
2023-02-19T14:23:08.926Z,12.95
2023-02-19T14:25:44.254Z,13.25
2023-02-19T14:28:25.816Z,13.74
2023-02-19T14:30:55.294Z,13.67
2023-02-19T14:33:26.909Z,13.42
2023-02-19T14:35:57.486Z,13.35
2023-02-19T14:38:27.516Z,13.51
2023-02-19T14:40:55.622Z,13.25
2023-02-19T14:46:27.278Z,14.03
2023-02-19T14:49:04.959Z,14.03
2023-02-19T14:57:41.488Z,13.70
2023-02-19T15:00:23.907Z,13.72
2023-02-19T15:02:55.724Z,13.69
2023-02-19T15:05:28.423Z,13.50
2023-02-19T15:08:03.113Z,13.55
2023-02-19T15:10:33.685Z,13.64
2023-02-19T15:13:04.758Z,13.54
2023-02-19T15:15:36.906Z,13.68
2023-02-19T15:18:06.038Z,13.27
2023-02-19T15:20:37.412Z,13.49
2023-02-19T15:23:07.634Z,13.63
2023-02-19T15:25:37.983Z,13.68
2023-02-19T15:28:27.686Z,13.43
2023-02-19T15:31:07.654Z,13.68
2023-02-19T15:33:35.483Z,13.91
2023-02-19T15:50:15.559Z,13.71
2023-02-19T15:55:35.612Z,13.59
2023-02-19T15:58:16.665Z,13.21
2023-02-19T16:00:48.371Z,13.35
2023-02-19T16:05:59.454Z,13.61
2023-02-19T16:08:31.029Z,13.46
2023-02-19T16:11:03.034Z,13.32
2023-02-19T16:28:43.235Z,13.28
2023-02-19T16:31:35.926Z,13.48
2023-02-19T16:36:49.464Z,13.27
2023-02-19T16:39:19.456Z,13.10
2023-02-19T16:42:15.044Z,12.94
2023-02-19T16:44:44.459Z,12.69
2023-02-19T16:47:20.392Z,12.77
2023-02-19T16:49:47.592Z,12.56
2023-02-19T16:52:16.032Z,12.44
2023-02-19T16:54:43.736Z,12.34
2023-02-19T17:03:26.284Z,12.20
2023-02-19T17:34:01.705Z,11.46
2023-02-19T17:36:34.359Z,11.33
2023-02-19T17:39:04.145Z,11.24
2023-02-19T17:41:33.586Z,11.12
2023-02-19T17:44:00.565Z,11.02
2023-02-19T17:46:28.003Z,10.86
2023-02-19T17:48:55.671Z,10.83
2023-02-19T17:59:55.810Z,10.71
2023-02-19T18:02:25.196Z,10.50
2023-02-19T18:04:52.594Z,10.42
2023-02-19T18:07:21.094Z,10.36
2023-02-19T18:09:48.578Z,10.23
2023-02-19T18:12:15.530Z,10.16
2023-02-19T18:14:45.524Z,10.10
2023-02-19T18:17:14.936Z,9.91
2023-02-19T18:19:45.090Z,9.87
2023-02-19T18:22:12.145Z,9.78
2023-02-19T18:24:47.036Z,9.77
2023-02-19T18:27:15.067Z,9.63
2023-02-19T18:37:52.970Z,9.52
2023-02-19T18:40:20.833Z,9.33
2023-02-19T18:42:47.884Z,9.19
2023-02-19T18:45:14.886Z,9.13
2023-02-19T18:47:41.894Z,9.04
2023-02-19T18:50:10.921Z,9.00
2023-02-19T18:52:37.825Z,9.05
2023-02-19T18:55:07.429Z,9.11
2023-02-19T18:57:34.444Z,9.13
2023-02-19T19:00:01.467Z,9.16
2023-02-19T19:02:33.763Z,9.12
2023-02-19T19:05:07.060Z,9.18
2023-02-19T19:07:34.024Z,9.17
2023-02-19T19:10:01.090Z,9.17
2023-02-19T19:12:29.494Z,9.05
2023-02-19T19:14:56.498Z,9.10
2023-02-19T19:17:23.467Z,9.16
2023-02-19T19:19:50.401Z,9.20
2023-02-19T19:22:22.742Z,9.19
2023-02-19T19:24:49.842Z,9.27
2023-02-19T19:27:18.730Z,9.32
2023-02-19T19:29:47.958Z,9.33
2023-02-19T19:32:14.977Z,9.39
2023-02-19T19:34:43.227Z,9.41
2023-02-19T19:37:10.235Z,9.45
2023-02-19T19:39:37.326Z,9.44
2023-02-19T19:42:04.707Z,9.49
2023-02-19T19:44:31.742Z,9.60
2023-02-19T19:47:00.277Z,9.58
2023-02-19T19:49:27.330Z,9.55
2023-02-19T19:51:54.714Z,9.53
2023-02-19T19:54:22.516Z,9.57
2023-02-19T19:56:50.993Z,9.57
2023-02-19T19:59:18.806Z,9.65
2023-02-19T20:01:50.855Z,9.50
2023-02-19T20:04:19.994Z,9.51
2023-02-19T20:06:47.254Z,9.53
2023-02-19T20:09:15.132Z,9.49
2023-02-19T20:11:46.466Z,9.41
2023-02-19T20:14:13.570Z,9.42
2023-02-19T20:16:40.520Z,9.40
2023-02-19T20:19:08.020Z,9.44
2023-02-19T20:21:36.382Z,9.42
2023-02-19T20:24:03.521Z,9.31
2023-02-19T20:26:31.847Z,9.24
2023-02-19T20:28:59.095Z,9.29
2023-02-19T20:31:26.400Z,9.30
2023-02-19T20:33:53.651Z,9.21
2023-02-19T20:36:20.806Z,9.20
2023-02-19T20:38:49.884Z,9.24
2023-02-19T20:41:16.895Z,9.37
2023-02-19T20:46:19.183Z,9.29
2023-02-19T20:48:46.386Z,9.41
2023-02-19T20:51:13.367Z,9.44
2023-02-19T20:53:42.400Z,9.32
2023-02-19T20:56:12.162Z,9.37
2023-02-19T20:58:42.284Z,9.47
2023-02-19T21:01:11.718Z,9.37
2023-02-19T21:03:38.694Z,9.35
2023-02-19T21:06:06.283Z,9.45
2023-02-19T21:08:33.404Z,9.49
2023-02-19T21:11:00.351Z,9.45
2023-02-19T21:13:30.278Z,9.44
2023-02-19T21:15:57.372Z,9.34
2023-02-19T21:18:24.404Z,9.31
2023-02-19T21:23:33.164Z,9.15
2023-02-19T21:26:02.136Z,9.21
2023-02-19T21:28:30.542Z,9.22
2023-02-19T21:30:57.535Z,9.21
2023-02-19T21:33:24.598Z,9.28
2023-02-19T21:35:51.577Z,9.42
2023-02-19T21:38:18.584Z,9.42
2023-02-19T21:40:45.687Z,9.37
2023-02-19T21:43:13.000Z,9.43
2023-02-19T21:45:42.829Z,9.33
2023-02-19T21:53:34.107Z,9.33
2023-02-19T21:56:01.097Z,9.37
2023-02-19T21:58:28.065Z,9.32
2023-02-19T22:00:58.191Z,9.29
2023-02-19T22:03:26.673Z,9.43
2023-02-19T22:08:35.086Z,9.40
2023-02-19T22:11:02.144Z,9.37
2023-02-19T22:13:29.137Z,9.39
2023-02-19T22:15:57.531Z,9.37
2023-02-19T22:18:24.678Z,9.48
2023-02-19T22:20:54.749Z,9.45
2023-02-19T22:26:20.990Z,9.34
2023-02-19T22:28:48.216Z,9.29
2023-02-19T22:31:18.153Z,9.35
2023-02-19T22:33:46.062Z,9.27
2023-02-19T22:36:15.773Z,9.35
2023-02-19T22:38:42.920Z,9.26
2023-02-19T22:41:10.401Z,9.26
2023-02-19T22:43:37.470Z,9.28
2023-02-19T22:46:04.909Z,9.20
2023-02-19T22:48:33.326Z,9.31
2023-02-19T22:51:01.242Z,9.27
2023-02-19T22:53:28.252Z,9.26
2023-02-19T22:55:55.160Z,9.22
2023-02-19T22:58:22.232Z,9.30
2023-02-19T23:00:49.238Z,9.30
2023-02-19T23:03:16.334Z,9.27
2023-02-19T23:05:45.118Z,9.10
2023-02-19T23:08:12.365Z,8.98
2023-02-19T23:10:41.029Z,9.19
2023-02-19T23:13:08.059Z,9.16
2023-02-19T23:15:35.302Z,9.22
2023-02-19T23:18:04.689Z,9.16
2023-02-19T23:20:31.670Z,9.19
2023-02-19T23:23:00.023Z,9.12
2023-02-19T23:25:27.114Z,9.14
2023-02-19T23:27:54.119Z,9.15
2023-02-19T23:30:21.405Z,9.10
2023-02-19T23:32:48.428Z,9.06
2023-02-19T23:35:15.425Z,9.16
2023-02-19T23:37:42.396Z,9.23
2023-02-19T23:40:13.011Z,9.04
2023-02-19T23:42:40.085Z,8.99
2023-02-19T23:45:07.655Z,8.94
2023-02-19T23:47:34.740Z,9.06
2023-02-19T23:50:01.714Z,9.00
2023-02-19T23:52:28.697Z,9.08
2023-02-19T23:54:56.027Z,9.24
2023-02-19T23:57:24.448Z,9.18
2023-02-19T23:59:51.351Z,9.04
